createdAt,value
2024-01-28T00:02:03.434Z,77.89
2024-01-28T00:04:42.749Z,78.41
2024-01-28T00:07:27.163Z,78.43
2024-01-28T00:10:06.463Z,77.24
2024-01-28T00:12:45.811Z,77.12
2024-01-28T00:15:25.368Z,77.54
2024-01-28T00:18:04.998Z,78.65
2024-01-28T00:20:44.424Z,80.65
2024-01-28T00:23:28.793Z,81.87
2024-01-28T00:26:09.534Z,81.24
2024-01-28T00:28:49.029Z,79.43
2024-01-28T00:31:28.421Z,79.54
2024-01-28T00:34:08.309Z,80.94
2024-01-28T00:36:47.657Z,81.15
2024-01-28T00:39:32.274Z,82.84
2024-01-28T00:42:12.489Z,82.04
2024-01-28T00:44:51.768Z,81.30
2024-01-28T00:47:31.050Z,81.87
2024-01-28T00:50:10.504Z,81.35
2024-01-28T00:52:49.913Z,80.81
2024-01-28T00:55:34.329Z,79.90
2024-01-28T00:58:14.786Z,81.13
2024-01-28T01:00:54.167Z,81.28
2024-01-28T01:03:33.819Z,81.06
2024-01-28T01:06:13.893Z,81.39
2024-01-28T01:08:54.455Z,82.13
2024-01-28T01:11:38.871Z,82.34
2024-01-28T01:14:18.259Z,82.29
2024-01-28T01:16:57.547Z,81.44
2024-01-28T01:19:36.955Z,82.13
2024-01-28T01:22:16.476Z,82.52
2024-01-28T01:24:55.837Z,81.48
2024-01-28T01:27:40.282Z,80.71
2024-01-28T01:30:20.659Z,80.89
2024-01-28T01:33:00.014Z,81.19
2024-01-28T01:35:39.369Z,82.76
2024-01-28T01:38:18.688Z,83.54
2024-01-28T01:40:58.286Z,82.12
2024-01-28T01:43:42.639Z,82.33
2024-01-28T01:46:22.917Z,81.72
2024-01-28T01:49:02.800Z,82.13
2024-01-28T01:51:43.132Z,81.93
2024-01-28T01:54:22.839Z,82.26
2024-01-28T01:57:02.252Z,82.69
2024-01-28T01:59:47.556Z,83.10
2024-01-28T02:02:27.614Z,83.01
2024-01-28T02:05:07.137Z,82.37
2024-01-28T02:07:46.885Z,82.56
2024-01-28T02:10:28.012Z,82.51
2024-01-28T02:13:07.314Z,82.97
2024-01-28T02:15:51.908Z,83.49
2024-01-28T02:18:31.338Z,83.74
2024-01-28T02:21:11.230Z,84.11
2024-01-28T02:23:55.620Z,84.65
2024-01-28T02:26:35.007Z,83.26
2024-01-28T02:29:14.440Z,82.77
2024-01-28T02:31:54.170Z,82.98
2024-01-28T02:34:33.521Z,83.33
2024-01-28T02:37:12.871Z,83.14
2024-01-28T02:39:57.323Z,83.03
2024-01-28T02:42:36.753Z,83.16
2024-01-28T02:45:16.907Z,83.45
2024-01-28T02:47:56.546Z,82.68
2024-01-28T02:50:35.865Z,82.46
2024-01-28T02:53:15.198Z,83.37
2024-01-28T02:56:02.242Z,83.44
2024-01-28T02:58:41.640Z,83.70
2024-01-28T03:01:20.984Z,83.72
2024-01-28T03:04:00.445Z,82.32
2024-01-28T03:06:39.886Z,83.35
2024-01-28T03:09:19.574Z,83.04
2024-01-28T03:12:04.025Z,83.14
2024-01-28T03:14:43.355Z,83.96
2024-01-28T03:17:23.190Z,83.64
2024-01-28T03:20:02.735Z,83.48
2024-01-28T03:22:42.012Z,83.63
2024-01-28T03:25:21.452Z,84.27
2024-01-28T03:28:06.123Z,83.61
2024-01-28T03:30:45.705Z,82.33
2024-01-28T03:33:25.179Z,83.59
2024-01-28T03:36:04.880Z,82.94
2024-01-28T03:38:44.172Z,82.53
2024-01-28T03:41:24.285Z,82.92
2024-01-28T03:44:08.670Z,82.04
2024-01-28T03:46:47.958Z,81.49
2024-01-28T03:49:27.245Z,80.26
2024-01-28T03:52:06.574Z,80.95
2024-01-28T03:54:45.940Z,80.58
2024-01-28T03:57:25.522Z,80.97
2024-01-28T04:00:10.537Z,80.15
2024-01-28T04:02:49.880Z,80.22
2024-01-28T04:05:29.365Z,80.74
2024-01-28T04:08:08.716Z,82.31
2024-01-28T04:10:48.060Z,81.13
2024-01-28T04:13:27.357Z,80.76
2024-01-28T04:16:12.291Z,81.56
2024-01-28T04:18:51.776Z,82.04
2024-01-28T04:21:31.603Z,80.92
2024-01-28T04:24:11.355Z,79.89
2024-01-28T04:26:51.383Z,80.09
2024-01-28T04:29:30.656Z,80.12
2024-01-28T04:32:16.874Z,80.22
2024-01-28T04:34:56.193Z,79.50
2024-01-28T04:37:35.517Z,80.49
2024-01-28T04:40:16.046Z,80.99
2024-01-28T04:42:55.339Z,81.02
2024-01-28T04:45:34.719Z,81.13
2024-01-28T04:48:19.612Z,81.30
2024-01-28T04:50:58.967Z,81.78
2024-01-28T04:53:38.244Z,80.75
2024-01-28T04:56:18.561Z,80.34
2024-01-28T04:58:58.068Z,80.68
2024-01-28T05:01:37.979Z,81.31
2024-01-28T05:04:22.416Z,82.20
2024-01-28T05:07:01.800Z,82.15
2024-01-28T05:09:41.232Z,81.12
2024-01-28T05:12:21.014Z,80.90
2024-01-28T05:15:00.696Z,80.20
2024-01-28T05:17:39.960Z,79.88
2024-01-28T05:20:24.695Z,80.61
2024-01-28T05:23:04.726Z,81.15
2024-01-28T05:25:44.065Z,80.19
2024-01-28T05:28:23.399Z,80.04
2024-01-28T05:31:02.676Z,80.97
2024-01-28T05:33:43.416Z,81.63
2024-01-28T05:36:27.811Z,81.38
2024-01-28T05:39:07.155Z,80.94
2024-01-28T05:41:48.925Z,79.50
2024-01-28T05:44:30.066Z,80.36
2024-01-28T05:47:09.334Z,80.29
2024-01-28T05:49:48.913Z,81.61
2024-01-28T05:52:33.314Z,81.51
2024-01-28T05:55:13.278Z,81.34
2024-01-28T05:57:52.627Z,81.20
2024-01-28T06:00:32.205Z,81.03
2024-01-28T06:03:11.557Z,81.29
2024-01-28T06:05:50.978Z,82.00
2024-01-28T06:08:35.505Z,82.08
2024-01-28T06:11:14.787Z,81.40
2024-01-28T06:13:54.087Z,80.81
2024-01-28T06:16:33.351Z,80.19
2024-01-28T06:19:12.945Z,80.99
2024-01-28T06:21:53.319Z,81.56
2024-01-28T06:24:37.941Z,80.86
2024-01-28T06:27:17.257Z,79.95
2024-01-28T06:29:56.607Z,79.14
2024-01-28T06:32:35.898Z,80.12
2024-01-28T06:35:16.288Z,79.92
2024-01-28T06:37:55.760Z,81.26
2024-01-28T06:40:40.066Z,80.94
2024-01-28T06:43:19.549Z,80.37
2024-01-28T06:45:59.177Z,79.61
2024-01-28T06:48:38.761Z,79.48
2024-01-28T06:51:18.119Z,78.74
2024-01-28T06:53:59.547Z,78.10
2024-01-28T06:56:44.170Z,78.05
2024-01-28T06:59:23.493Z,78.05
2024-01-28T07:02:02.738Z,79.21
2024-01-28T07:04:42.138Z,80.26
2024-01-28T07:07:21.787Z,80.44
2024-01-28T07:10:01.265Z,81.33
2024-01-28T07:12:47.066Z,81.07
2024-01-28T07:15:26.502Z,80.98
2024-01-28T07:18:05.827Z,81.18
2024-01-28T07:20:45.256Z,82.12
2024-01-28T07:23:24.502Z,82.31
2024-01-28T07:26:03.857Z,82.58
2024-01-28T07:28:48.261Z,81.78
2024-01-28T07:31:27.732Z,81.89
2024-01-28T07:34:07.101Z,81.48
2024-01-28T07:36:47.782Z,82.86
2024-01-28T07:39:27.373Z,82.66
2024-01-28T07:42:06.729Z,82.14
2024-01-28T07:44:51.104Z,82.22
2024-01-28T07:47:30.341Z,81.39
2024-01-28T07:50:09.912Z,81.53
2024-01-28T07:52:49.285Z,80.92
2024-01-28T07:55:28.530Z,80.89
2024-01-28T07:58:07.983Z,81.54
2024-01-28T08:00:52.355Z,82.12
2024-01-28T08:03:31.755Z,82.81
2024-01-28T08:06:12.330Z,81.96
2024-01-28T08:08:51.677Z,82.47
2024-01-28T08:11:31.012Z,82.11
2024-01-28T08:14:10.541Z,82.30
2024-01-28T08:16:54.901Z,81.58
2024-01-28T08:19:34.438Z,81.82
2024-01-28T08:22:13.810Z,82.11
2024-01-28T08:24:53.313Z,82.00
2024-01-28T08:27:33.060Z,81.75
2024-01-28T08:30:13.915Z,82.31
2024-01-28T08:32:58.459Z,82.58
2024-01-28T08:35:42.586Z,82.35
2024-01-28T08:38:22.167Z,82.85
2024-01-28T08:41:01.488Z,82.35
2024-01-28T08:43:40.724Z,82.25
2024-01-28T08:46:20.073Z,82.27
2024-01-28T08:49:05.116Z,82.74
2024-01-28T08:51:44.526Z,82.92
2024-01-28T08:54:23.905Z,83.20
2024-01-28T08:57:03.171Z,82.81
2024-01-28T08:59:42.424Z,82.92
2024-01-28T09:02:21.930Z,83.34
2024-01-28T09:05:06.483Z,83.48
2024-01-28T09:07:47.717Z,83.44
2024-01-28T09:10:27.015Z,82.85
2024-01-28T09:13:06.455Z,83.65
2024-01-28T09:15:45.770Z,83.44
2024-01-28T09:18:25.138Z,83.53
2024-01-28T09:21:09.516Z,83.72
2024-01-28T09:23:48.806Z,84.17
2024-01-28T09:26:28.081Z,83.95
2024-01-28T09:29:07.420Z,83.89
2024-01-28T09:31:46.815Z,84.01
2024-01-28T09:34:26.483Z,84.30
2024-01-28T09:37:11.136Z,84.33
2024-01-28T09:39:50.564Z,84.25
2024-01-28T09:42:32.117Z,84.17
2024-01-28T09:45:12.383Z,83.61
2024-01-28T09:47:52.979Z,80.79
2024-01-28T09:50:35.337Z,76.19
2024-01-28T09:53:21.112Z,70.52
2024-01-28T09:56:01.515Z,66.43
2024-01-28T09:58:41.753Z,65.37
2024-01-28T10:01:21.270Z,64.49
2024-01-28T10:04:02.788Z,63.49
2024-01-28T10:06:42.184Z,62.36
2024-01-28T10:09:26.904Z,61.96
2024-01-28T10:12:06.922Z,59.66
2024-01-28T10:14:46.259Z,58.73
2024-01-28T10:17:25.566Z,58.17
2024-01-28T10:20:09.661Z,57.80
2024-01-28T10:22:48.963Z,56.75
2024-01-28T10:25:33.781Z,56.23
2024-01-28T10:28:13.908Z,55.47
2024-01-28T10:30:56.978Z,54.75
2024-01-28T10:33:36.418Z,53.99
2024-01-28T10:36:17.874Z,54.26
2024-01-28T10:38:59.975Z,53.31
2024-01-28T10:41:52.244Z,52.05
2024-01-28T10:44:32.503Z,52.46
2024-01-28T10:47:11.981Z,50.81
2024-01-28T10:49:54.449Z,50.53
2024-01-28T10:52:34.824Z,48.74
2024-01-28T10:55:15.151Z,48.28
2024-01-28T10:58:01.860Z,48.57
2024-01-28T11:00:43.333Z,47.19
2024-01-28T11:03:23.471Z,47.28
2024-01-28T11:06:03.102Z,47.06
2024-01-28T11:08:43.545Z,46.40
2024-01-28T11:11:22.956Z,46.35
2024-01-28T11:14:15.302Z,44.39
2024-01-28T11:16:55.172Z,43.81
2024-01-28T11:19:35.951Z,43.60
2024-01-28T11:22:22.529Z,43.69
2024-01-28T11:25:02.049Z,42.63
2024-01-28T11:27:41.526Z,42.41
2024-01-28T11:30:28.520Z,41.93
2024-01-28T11:33:18.143Z,41.45
2024-01-28T11:35:59.874Z,41.43
2024-01-28T11:38:49.922Z,41.44
2024-01-28T11:41:33.533Z,40.95
2024-01-28T11:44:15.892Z,39.66
2024-01-28T11:47:00.744Z,38.81
2024-01-28T11:49:40.268Z,39.16
2024-01-28T11:52:19.770Z,39.22
2024-01-28T11:55:00.746Z,39.08
2024-01-28T11:57:40.108Z,39.44
2024-01-28T12:00:21.301Z,39.15
2024-01-28T12:03:06.073Z,38.54
2024-01-28T12:05:45.372Z,38.39
2024-01-28T12:08:33.547Z,37.55
2024-01-28T12:11:12.987Z,37.43
2024-01-28T12:13:52.508Z,37.32
2024-01-28T12:16:32.842Z,37.34
2024-01-28T12:19:20.848Z,37.11
2024-01-28T12:22:00.262Z,37.44
2024-01-28T12:24:40.822Z,36.64
2024-01-28T12:27:21.477Z,36.76
2024-01-28T12:30:01.859Z,36.37
2024-01-28T12:32:41.535Z,36.11
2024-01-28T12:35:25.986Z,36.06
2024-01-28T12:38:05.249Z,36.26
2024-01-28T12:40:44.583Z,35.91
2024-01-28T12:43:24.056Z,36.23
2024-01-28T12:46:03.652Z,35.88
2024-01-28T12:48:43.068Z,35.49
2024-01-28T12:51:27.495Z,35.62
2024-01-28T12:54:07.092Z,35.56
2024-01-28T12:56:46.385Z,35.23
2024-01-28T12:59:25.722Z,34.98
2024-01-28T13:02:06.445Z,34.45
2024-01-28T13:04:46.061Z,34.27
2024-01-28T13:07:30.447Z,33.87
2024-01-28T13:10:09.693Z,34.24
2024-01-28T13:12:49.045Z,34.01
2024-01-28T13:15:29.002Z,34.44
2024-01-28T13:18:20.808Z,33.96
2024-01-28T13:21:08.927Z,34.40
2024-01-28T13:23:53.276Z,34.09
2024-01-28T13:26:32.703Z,34.00
2024-01-28T13:29:12.045Z,34.20
2024-01-28T13:31:51.407Z,34.15
2024-01-28T13:34:31.362Z,33.34
2024-01-28T13:37:11.431Z,33.66
2024-01-28T13:39:56.175Z,33.77
2024-01-28T13:42:35.469Z,33.74
2024-01-28T13:45:16.281Z,33.73
2024-01-28T13:47:55.780Z,32.97
2024-01-28T13:50:35.227Z,32.52
2024-01-28T13:53:14.871Z,32.71
2024-01-28T13:55:59.271Z,32.68
2024-01-28T13:58:38.713Z,33.25
2024-01-28T14:01:18.041Z,32.67
2024-01-28T14:03:57.446Z,33.45
2024-01-28T14:06:37.380Z,33.23
2024-01-28T14:09:19.201Z,33.65
2024-01-28T14:12:03.589Z,32.70
2024-01-28T14:14:42.824Z,32.79
2024-01-28T14:17:22.770Z,32.62
2024-01-28T14:20:02.072Z,33.43
2024-01-28T14:22:41.403Z,33.37
2024-01-28T14:25:21.506Z,34.13
2024-01-28T14:28:06.428Z,33.64
2024-01-28T14:30:45.888Z,33.57
2024-01-28T14:33:25.452Z,33.84
2024-01-28T14:36:05.288Z,33.89
2024-01-28T14:38:44.704Z,33.70
2024-01-28T14:41:23.996Z,33.99
2024-01-28T14:44:08.361Z,33.87
2024-01-28T14:46:48.160Z,34.02
2024-01-28T14:49:28.646Z,33.69
2024-01-28T14:52:08.072Z,34.26
2024-01-28T14:54:47.344Z,34.78
2024-01-28T14:57:27.797Z,34.61
2024-01-28T15:00:13.595Z,34.78
2024-01-28T15:02:52.880Z,35.05
2024-01-28T15:05:32.169Z,35.29
2024-01-28T15:08:12.662Z,35.39
2024-01-28T15:10:51.978Z,35.82
2024-01-28T15:13:31.312Z,38.04
2024-01-28T15:16:16.093Z,39.71
2024-01-28T15:18:55.506Z,39.39
2024-01-28T15:21:34.885Z,39.25
2024-01-28T15:24:14.603Z,40.02
2024-01-28T15:26:53.926Z,40.92
2024-01-28T15:29:33.355Z,42.28
2024-01-28T15:32:17.962Z,46.29
2024-01-28T15:34:57.891Z,49.70
2024-01-28T15:37:37.439Z,52.73
2024-01-28T15:40:18.184Z,56.23
2024-01-28T15:42:57.532Z,57.09
2024-01-28T15:45:36.833Z,58.30
2024-01-28T15:48:21.595Z,58.53
2024-01-28T15:51:04.144Z,59.00
2024-01-28T15:53:43.723Z,60.94
2024-01-28T15:56:25.151Z,61.98
2024-01-28T15:59:04.504Z,61.44
2024-01-28T16:01:43.858Z,61.46
2024-01-28T16:04:28.184Z,61.60
2024-01-28T16:07:07.633Z,62.33
2024-01-28T16:09:52.163Z,61.83
2024-01-28T16:12:32.310Z,63.25
2024-01-28T16:15:12.574Z,63.43
2024-01-28T16:17:52.582Z,63.61
2024-01-28T16:20:36.943Z,63.69
2024-01-28T16:23:16.240Z,63.94
2024-01-28T16:25:55.701Z,62.95
2024-01-28T16:28:35.321Z,63.44
2024-01-28T16:31:14.628Z,64.09
2024-01-28T16:33:54.183Z,64.43
2024-01-28T16:36:38.723Z,65.02
2024-01-28T16:39:18.073Z,66.42
2024-01-28T16:41:57.398Z,65.68
2024-01-28T16:44:36.696Z,66.12
2024-01-28T16:47:16.944Z,66.92
2024-01-28T16:49:56.261Z,66.91
2024-01-28T16:52:40.881Z,66.44
2024-01-28T16:55:21.202Z,66.52
2024-01-28T16:58:02.322Z,67.25
2024-01-28T17:00:41.812Z,67.14
2024-01-28T17:03:22.771Z,67.67
2024-01-28T17:06:02.171Z,68.48
2024-01-28T17:08:46.588Z,69.17
2024-01-28T17:11:26.202Z,68.92
2024-01-28T17:14:05.777Z,67.58
2024-01-28T17:16:45.152Z,67.56
2024-01-28T17:19:24.477Z,69.73
2024-01-28T17:22:03.776Z,70.50
2024-01-28T17:24:48.157Z,69.32
2024-01-28T17:27:27.463Z,68.35
2024-01-28T17:30:07.355Z,67.49
2024-01-28T17:32:46.652Z,69.40
2024-01-28T17:35:26.045Z,70.60
2024-01-28T17:38:05.585Z,70.32
2024-01-28T17:40:50.005Z,70.18
2024-01-28T17:43:31.332Z,70.29
2024-01-28T17:46:10.717Z,70.37
2024-01-28T17:48:50.292Z,70.23
2024-01-28T17:51:29.748Z,69.79
2024-01-28T17:54:09.059Z,69.14
2024-01-28T17:56:53.553Z,69.49
2024-01-28T17:59:32.800Z,69.86
2024-01-28T18:02:12.444Z,70.55
2024-01-28T18:04:52.302Z,70.48
2024-01-28T18:07:31.886Z,72.71
2024-01-28T18:10:11.870Z,72.42
2024-01-28T18:12:56.354Z,72.01
2024-01-28T18:15:35.796Z,72.99
2024-01-28T18:18:15.622Z,73.62
2024-01-28T18:20:54.916Z,73.25
2024-01-28T18:23:34.202Z,73.10
2024-01-28T18:26:14.712Z,72.71
2024-01-28T18:28:59.065Z,73.06
2024-01-28T18:31:38.402Z,73.82
2024-01-28T18:34:17.792Z,72.60
2024-01-28T18:36:57.300Z,72.51
2024-01-28T18:39:36.612Z,73.26
2024-01-28T18:42:15.947Z,72.77
2024-01-28T18:45:00.368Z,73.02
2024-01-28T18:47:39.636Z,73.83
2024-01-28T18:50:19.481Z,74.21
2024-01-28T18:52:59.545Z,73.42
2024-01-28T18:55:39.237Z,73.04
2024-01-28T18:58:18.831Z,72.76
2024-01-28T19:01:03.307Z,72.52
2024-01-28T19:03:42.713Z,73.34
2024-01-28T19:06:22.474Z,74.25
2024-01-28T19:09:02.611Z,72.53
2024-01-28T19:11:42.324Z,72.45
2024-01-28T19:14:21.735Z,72.69
2024-01-28T19:17:06.114Z,73.09
2024-01-28T19:19:45.570Z,72.45
2024-01-28T19:22:24.893Z,74.35
2024-01-28T19:25:04.364Z,73.81
2024-01-28T19:27:43.720Z,74.78
2024-01-28T19:30:23.161Z,74.78
2024-01-28T19:33:07.958Z,75.22
2024-01-28T19:35:53.094Z,72.08
2024-01-28T19:38:32.332Z,73.30
2024-01-28T19:41:11.955Z,74.64
2024-01-28T19:43:51.815Z,75.51
2024-01-28T19:46:31.633Z,75.32
2024-01-28T19:49:16.186Z,75.06
2024-01-28T19:51:55.594Z,75.82
2024-01-28T19:54:36.375Z,75.91
2024-01-28T19:57:16.517Z,75.54
2024-01-28T19:59:55.840Z,75.53
2024-01-28T20:02:35.152Z,74.99
2024-01-28T20:05:19.868Z,75.18
2024-01-28T20:07:59.180Z,74.85
2024-01-28T20:10:38.505Z,76.02
2024-01-28T20:13:17.915Z,76.96
2024-01-28T20:15:57.392Z,77.75
2024-01-28T20:18:36.762Z,76.94
2024-01-28T20:21:21.199Z,76.12
2024-01-28T20:24:00.527Z,77.63
2024-01-28T20:26:39.799Z,77.39
2024-01-28T20:29:19.078Z,77.41
2024-01-28T20:31:58.734Z,77.09
2024-01-28T20:34:38.127Z,77.09
2024-01-28T20:37:23.484Z,77.80
2024-01-28T20:40:02.993Z,77.85
2024-01-28T20:42:42.423Z,76.78
2024-01-28T20:45:23.890Z,76.85
2024-01-28T20:48:03.212Z,76.24
2024-01-28T20:50:42.563Z,76.66
2024-01-28T20:53:26.892Z,76.83
2024-01-28T20:56:10.467Z,76.03
2024-01-28T20:58:49.759Z,75.90
2024-01-28T21:01:29.145Z,75.38
2024-01-28T21:04:08.593Z,76.48
2024-01-28T21:06:47.887Z,77.06
2024-01-28T21:09:32.611Z,77.07
2024-01-28T21:12:12.732Z,76.64
2024-01-28T21:14:52.053Z,77.40
2024-01-28T21:17:34.868Z,78.01
2024-01-28T21:20:15.267Z,77.72
2024-01-28T21:22:55.411Z,78.44
2024-01-28T21:25:39.747Z,78.37
2024-01-28T21:28:19.036Z,75.84
2024-01-28T21:30:58.333Z,74.05
2024-01-28T21:33:37.730Z,75.37
2024-01-28T21:36:17.113Z,75.48
2024-01-28T21:38:56.432Z,76.04
2024-01-28T21:41:41.554Z,77.21
2024-01-28T21:44:20.992Z,76.37
2024-01-28T21:47:00.598Z,77.83
2024-01-28T21:49:40.416Z,77.42
2024-01-28T21:52:19.790Z,77.00
2024-01-28T21:54:59.300Z,77.94
2024-01-28T21:57:44.705Z,75.77
2024-01-28T22:00:25.112Z,75.83
2024-01-28T22:03:04.401Z,75.75
2024-01-28T22:05:43.726Z,75.95
2024-01-28T22:08:23.070Z,76.80
2024-01-28T22:11:02.403Z,77.77
2024-01-28T22:13:46.815Z,76.95
2024-01-28T22:16:26.261Z,77.24
2024-01-28T22:19:06.312Z,75.83
2024-01-28T22:21:45.684Z,75.99
2024-01-28T22:24:25.124Z,76.90
2024-01-28T22:27:04.460Z,77.97
2024-01-28T22:29:48.865Z,78.39
2024-01-28T22:32:28.895Z,78.53
2024-01-28T22:35:09.118Z,76.91
2024-01-28T22:37:48.434Z,77.27
2024-01-28T22:40:27.732Z,77.78
2024-01-28T22:43:07.111Z,76.94
2024-01-28T22:45:51.570Z,77.52
2024-01-28T22:48:31.540Z,77.62
2024-01-28T22:51:11.090Z,77.83
2024-01-28T22:53:51.153Z,77.42
2024-01-28T22:56:30.477Z,78.12
2024-01-28T22:59:09.733Z,78.26
2024-01-28T23:01:56.762Z,75.79
2024-01-28T23:04:36.254Z,74.55
2024-01-28T23:07:15.586Z,76.22
2024-01-28T23:09:54.956Z,76.32
2024-01-28T23:12:34.291Z,75.71
2024-01-28T23:15:21.002Z,75.95
2024-01-28T23:18:07.464Z,76.34
2024-01-28T23:20:46.883Z,77.07
2024-01-28T23:23:26.197Z,75.34
2024-01-28T23:26:05.429Z,75.72
2024-01-28T23:28:44.717Z,75.88
2024-01-28T23:31:24.660Z,76.59
2024-01-28T23:34:10.628Z,77.74
2024-01-28T23:36:50.154Z,76.75
2024-01-28T23:39:29.538Z,76.98
2024-01-28T23:42:08.901Z,75.87
2024-01-28T23:44:48.151Z,75.80
2024-01-28T23:47:27.442Z,77.19
2024-01-28T23:50:12.996Z,77.83
2024-01-28T23:52:52.959Z,78.87
2024-01-28T23:55:32.205Z,77.92
2024-01-28T23:58:11.776Z,75.85
